PPR Request

Ennakkolupa on pakollinen lentoonlähtöjä ja laskuja varten. Pyydä ennakkolupa tästä.

Laskukierrosvaraus

Tee ensin PPR-pyyntö, sitten vasta laskukierrosvaraus

Hinta 5 € / 15 minuutin slotti

Aerodrome Status

Updated 23 AUG 2017 08:01 LT

  • Some asphalt damage south of RWY 36 threshold
  • Night time PPR requests should be made at least two (2) hours before estimated takeoff/arrival time and must be confirmed by calling the duty officer
  • Preferred runway: RWY36

Contact duty officer at +358 20 7545 129 for more information.

Weather


Helsinki Malmi lentokenttä
AWS ILHF 231140Z AUTO 35011KT 9999 BKN024 BKN036 17/11 Q1011=

METAR EFHK 231150Z 35012KT 9999 BKN025 OVC200 17/11 Q1011 NOSIG=
TAF EFHK 231123Z 2312/2412 34010KT 9999 SCT030 BKN200=

Shell fuel service opening hours

Shell Aviation/Hki-Malmi

Beginning at 15 april 2017

Monday closed

Tuesday – Saturday 10.00-17.30 LCT

Sunday closed

Exception weeks 22, 25, 27 and 31 open Monday – Friday 10.00-17.30 LCT  Saturday – Sunday closed.

Contact: Shell Aviation/JF-Training Oy

Phone when open: 040 – 484 1241

Otherwise JF-Training Oy, mr. Tapio Mäkinen: 0400 – 777 641

—–

Aukioloajat 15.04.2017 alkaen:

Maanantai suljettu

Tiistai – Lauantai 10.00 – 17.30 LCT

Sunnuntai suljettu

Poikkeuksena viikot 22, 25, 27 ja 31 avoinna maanantai – perjantai 10.00 – 17.30 LCT,  lauantai – sunnuntai suljettu.

Yhteystiedot Shell Aviation/JF-Training Oy

Polttoainejakelun aukioloaikoina: 040 – 484 1241

Muina aikoina JF-Training Oy Tapio Mäkinen: 0400 – 777 641

Laskukierroslentäminen

Laskukierroslentäminen vaatii ennakkoluvan. Laskukierrosvaraukset puhelimitse Kenttäpäivystäjälle 020 7545 129.

Laskukierroslentäminen on mahdollista seuraavina aikoina (paikallista aikaa):

  • maanantaista perjantaihin 09.00–19.00
  • lauantaisin 10.00–17.00
  • sunnuntaisin 11.00–17.00

Muina aikoina sekä yleisinä arkipyhä- ja juhlapäivinä (REF AIP GEN 2.1-4) laskukierroslentäminen on kielletty.